Data for 11/27/2013

Time Sea-Level Adjusted Pressure Absolute Pressure Temperature Relative Humidity Dew Point   
(mb) (inHg) (mb) (inHg) (C) (F) (%) (C) (F)
00:05 1021 30.15 850 25.1 2 35.6 56 -5.9 21.4
00:10 1021 30.15 850 25.1 2 35.6 55 -6.1 21
00:15 1021 30.15 850 25.1 2.1 35.8 55 -6 21.2
00:20 1021 30.15 850 25.1 2.2 35.9 54 -6.1 21
00:25 1021 30.15 850 25.1 2.6 36.6 52 -6.2 20.8
00:30 1021 30.15 850 25.1 2.8 37 52 -6.2 20.9
00:35 1021 30.15 850 25.1 2.9 37.2 52 -6.1 21
00:40 1021 30.15 850 25.1 2.8 37 53 -6 21.2
00:45 1021 30.15 850 25.1 2.6 36.6 53 -6.1 21
00:50 1021 30.15 850 25.1 2.6 36.6 53 -6 21.3
00:55 1021 30.15 850 25.1 2.4 36.4 53 -6.2 20.9
01:00 1021 30.15 850 25.1 2.4 36.4 55 -5.6 21.9
01:05 1021 30.15 850 25.1 2.5 36.5 52 -6.4 20.4
01:10 1021 30.15 850 25.1 2.5 36.5 55 -5.7 21.7
01:15 1021 30.15 850 25.1 2.3 36.1 56 -5.7 21.8
01:20 1021 30.15 850 25.1 2.2 36 54 -6.1 20.9
01:25 1021 30.15 850 25.1 2.7 36.9 56 -5.3 22.5
01:30 1021 30.15 850 25.1 2.3 36.2 58 -5 22.9
01:35 1021 30.15 850 25.1 1.8 35.3 60 -5.2 22.7
01:40 1021 30.15 850 25.1 1.7 35.1 61 -5.1 22.8
01:45 1021 30.15 850 25.1 1.4 34.6 61 -5.3 22.5
01:50 1021 30.15 850 25.1 1.3 34.3 61 -5.4 22.2
01:55 1021 30.15 850 25.1 1.7 35.1 57 -5.9 21.3
02:00 1021 30.15 850 25.1 1.6 35 60 -5.4 22.3
02:05 1021 30.15 850 25.1 1.5 34.6 61 -5.2 22.7
02:10 1021 30.15 850 25.1 1.6 34.9 60 -5.4 22.2
02:15 1020 30.12 850 25.1 1.8 35.2 60 -5.1 22.9
02:20 1021 30.15 850 25.1 1.4 34.6 62 -5 23.1
02:25 1020 30.12 850 25.1 0.9 33.5 64 -5.2 22.6
02:30 1020 30.12 850 25.1 0.7 33.2 65 -5.2 22.6
02:35 1020 30.12 850 25.1 1.2 34.1 62 -5.3 22.4
02:40 1020 30.12 850 25.1 1.3 34.3 60 -5.5 22
02:45 1020 30.12 850 25.1 1.4 34.6 60 -5.6 21.9
02:50 1020 30.12 850 25.1 1.6 34.9 60 -5.4 22.4
02:55 1020 30.12 850 25.1 1.5 34.7 62 -5 22.9
03:00 1020 30.12 850 25.1 0.9 33.6 64 -5.3 22.5
03:05 1020 30.12 850 25.1 0.5 32.9 64 -5.5 22.1
03:10 1020 30.12 850 25.1 0.7 33.3 61 -5.9 21.5
03:15 1020 30.12 850 25.1 1 33.8 62 -5.5 22.2
03:20 1020 30.12 850 25.1 1 33.8 61 -5.7 21.8
03:25 1020 30.12 850 25.1 1.1 34.1 59 -6 21.1
03:30 1020 30.12 850 25.1 1.3 34.4 59 -5.8 21.6
03:35 1020 30.12 850 25.1 1.1 34.1 59 -6 21.2
03:40 1021 30.15 850 25.1 1.1 34 59 -6 21.2
03:45 1021 30.15 850 25.1 1 33.7 59 -6.1 21.1
03:50 1021 30.15 850 25.1 0.9 33.7 59 -6.1 20.9
03:55 1021 30.15 850 25.1 0.8 33.5 59 -6.3 20.6
04:00 1021 30.15 850 25.1 0.7 33.3 59 -6.3 20.7
04:05 1020 30.12 850 25.1 0.8 33.4 58 -6.5 20.3
04:10 1020 30.12 850 25.1 0.7 33.2 60 -6.3 20.6
04:15 1020 30.12 850 25.1 0.1 32.2 62 -6.4 20.5
04:20 1020 30.12 850 25.1 0 32 61 -6.7 19.9
04:25 1020 30.12 849 25.07 0.2 32.4 59 -6.8 19.8
04:30 1020 30.12 849 25.07 1.2 34.1 55 -6.8 19.8
04:35 1020 30.12 849 25.07 1.3 34.3 57 -6.3 20.6
04:40 1020 30.12 849 25.07 1 33.8 58 -6.4 20.4
04:45 1020 30.12 849 25.07 0.7 33.3 58 -6.5 20.2
04:50 1020 30.12 849 25.07 0.7 33.2 58 -6.6 20.1
04:55 1020 30.12 849 25.07 0.7 33.2 59 -6.5 20.3
05:00 1020 30.12 849 25.07 0.4 32.7 60 -6.5 20.2
05:05 1020 30.12 849 25.07 0.7 33.2 60 -6.3 20.7
05:10 1020 30.12 849 25.07 0.7 33.3 61 -5.9 21.4
05:15 1020 30.12 849 25.07 0.8 33.4 59 -6.3 20.7
05:20 1020 30.12 849 25.07 1 33.9 60 -5.9 21.4
05:25 1020 30.12 849 25.07 0.9 33.6 61 -5.9 21.4
05:30 1020 30.12 849 25.07 0.5 33 62 -5.9 21.4
05:35 1020 30.12 849 25.07 0.4 32.7 62 -6.1 21.1
05:40 1020 30.12 849 25.07 0.5 32.8 63 -5.9 21.5
05:45 1020 30.12 849 25.07 -0.1 31.9 66 -5.7 21.7
05:50 1020 30.12 849 25.07 -0.5 31.2 66 -6.1 21
05:55 1020 30.12 849 25.07 0.1 32.2 61 -6.6 20.2
06:00 1020 30.12 849 25.07 0.7 33.3 60 -6.2 20.9
06:05 1020 30.12 849 25.07 0.6 33.1 61 -6.1 21
06:10 1020 30.12 849 25.07 0.8 33.5 61 -6 21.3
06:15 1020 30.12 849 25.07 0.9 33.6 58 -6.4 20.5
06:20 1020 30.12 849 25.07 1 33.9 59 -6.1 21
06:25 1020 30.12 849 25.07 0.8 33.4 60 -6.2 20.9
06:30 1020 30.12 849 25.07 0.8 33.4 62 -5.8 21.6
06:35 1020 30.12 849 25.07 0.7 33.2 61 -6.1 21.1
06:40 1020 30.12 849 25.07 1 33.8 60 -5.8 21.5
06:45 1020 30.12 849 25.07 0.9 33.6 60 -6 21.2
06:50 1020 30.12 849 25.07 0.7 33.3 62 -5.7 21.7
06:55 1020 30.12 849 25.07 0.5 32.8 62 -5.9 21.3
07:00 1020 30.12 849 25.07 0.4 32.7 63 -5.8 21.6
07:05 1020 30.12 849 25.07 0.3 32.6 64 -5.7 21.7
07:10 1020 30.12 849 25.07 0.3 32.5 63 -6.1 21.1
07:15 1020 30.12 849 25.07 0.5 32.8 62 -5.9 21.4
07:20 1020 30.12 849 25.07 0.6 33.1 62 -5.9 21.4
07:25 1020 30.12 849 25.07 0.5 33 63 -5.8 21.6
07:30 1020 30.12 849 25.07 0.3 32.5 64 -5.9 21.4
07:35 1020 30.12 849 25.07 0 32.1 65 -5.8 21.5
07:40 1020 30.12 849 25.07 -0.2 31.6 66 -5.8 21.6
07:45 1020 30.12 849 25.07 -0.5 31.1 67 -5.9 21.4
07:50 1020 30.12 849 25.07 -0.3 31.5 66 -6 21.3
07:55 1020 30.12 849 25.07 -0.4 31.3 67 -5.8 21.6
08:00 1020 30.12 849 25.07 -0.5 31.1 66 -6.1 21.1
08:05 1020 30.12 849 25.07 0.2 32.3 61 -6.5 20.3
08:10 1020 30.12 849 25.07 0.6 33.1 61 -6 21.2
08:15 1020 30.12 849 25.07 0.7 33.3 60 -6.1 20.9
08:20 1020 30.12 849 25.07 0.9 33.6 59 -6.2 20.9
08:25 1020 30.12 849 25.07 0.9 33.7 61 -5.7 21.8
08:30 1020 30.12 849 25.07 0.3 32.6 63 -6 21.3
08:35 1020 30.12 849 25.07 -0.1 31.8 66 -5.7 21.7
08:40 1020 30.12 849 25.07 -0.9 30.4 68 -6.1 20.9
08:45 1020 30.12 849 25.07 -0.6 30.9 64 -6.5 20.2
08:50 1020 30.12 849 25.07 0 32.1 61 -6.5 20.3
08:55 1020 30.12 849 25.07 0.3 32.5 61 -6.3 20.7
09:00 1020 30.12 850 25.1 0.1 32.2 63 -6.2 20.9
09:05 1020 30.12 850 25.1 0.1 32.1 62 -6.5 20.4
09:10 1020 30.12 850 25.1 0.3 32.5 63 -5.9 21.3
09:15 1021 30.15 850 25.1 0.2 32.4 62 -6.2 20.8
09:20 1021 30.15 850 25.1 -0.2 31.7 63 -6.4 20.5
09:25 1021 30.15 850 25.1 -0.1 31.8 62 -6.5 20.3
09:30 1020 30.12 850 25.1 0.2 32.4 60 -6.5 20.3
09:35 1021 30.15 850 25.1 0.7 33.2 60 -6.3 20.6
09:40 1021 30.15 850 25.1 0.6 33.1 60 -6.3 20.6
09:45 1021 30.15 850 25.1 0.7 33.3 59 -6.3 20.7
09:50 1021 30.15 850 25.1 0.8 33.5 59 -6.2 20.8
09:55 1021 30.15 850 25.1 0.6 33.1 60 -6.3 20.7
10:00 1021 30.15 850 25.1 0.5 33 61 -6.2 20.8
10:05 1021 30.15 850 25.1 0.7 33.3 59 -6.4 20.5
10:10 1021 30.15 850 25.1 1.1 33.9 58 -6.2 20.8
10:15 1021 30.15 850 25.1 1.4 34.6 57 -6.2 20.9
10:20 1021 30.15 850 25.1 1.5 34.7 57 -6 21.2
10:25 1021 30.15 850 25.1 1.9 35.4 56 -5.9 21.4
10:30 1021 30.15 850 25.1 2.3 36.1 54 -6 21.1
10:35 1021 30.15 850 25.1 2.5 36.5 54 -5.8 21.5
10:40 1021 30.15 850 25.1 2.9 37.2 53 -5.8 21.6
10:45 1021 30.15 850 25.1 3 37.4 53 -5.5 22
10:50 1021 30.15 850 25.1 3 37.3 55 -5.2 22.6
10:55 1021 30.15 850 25.1 3.2 37.8 54 -5.3 22.4
11:00 1021 30.15 850 25.1 3.5 38.2 52 -5.5 22.1
11:05 1021 30.15 850 25.1 3.7 38.7 51 -5.5 22
11:10 1021 30.15 850 25.1 4.2 39.6 51 -5 23
11:15 1021 30.15 850 25.1 4.3 39.8 49 -5.4 22.2
11:20 1021 30.15 850 25.1 4.7 40.4 48 -5.3 22.5
11:25 1021 30.15 850 25.1 5.2 41.4 47 -5.2 22.7
11:30 1021 30.15 850 25.1 5.7 42.2 44 -5.5 22.1
11:35 1021 30.15 850 25.1 5.2 41.4 46 -5.4 22.2
11:40 1021 30.15 850 25.1 5.2 41.4 46 -5.4 22.2
11:45 1021 30.15 850 25.1 5.1 41.1 45 -6 21.3
11:50 1021 30.15 850 25.1 5.8 42.4 42 -6.2 20.8
11:55 1021 30.15 850 25.1 5.8 42.5 42 -6.1 21.1
12:00 1021 30.15 850 25.1 6.2 43.2 41 -6.1 21.1
12:05 1021 30.15 850 25.1 6.9 44.4 39 -6.2 20.9
12:10 1021 30.15 850 25.1 7 44.6 38 -6.2 20.9
12:15 1021 30.15 850 25.1 7 44.6 40 -5.8 21.6
12:20 1021 30.15 850 25.1 7.1 44.7 38 -6.4 20.5
12:25 1021 30.15 850 25.1 6.7 44 38 -6.5 20.2
12:30 1021 30.15 850 25.1 6.6 43.9 41 -5.7 21.7
12:35 1020 30.12 850 25.1 6.7 44.1 38 -6.6 20.2
12:40 1020 30.12 850 25.1 6.7 44.1 38 -6.6 20.2
12:45 1020 30.12 850 25.1 6.2 43.2 39 -6.6 20.1
12:50 1020 30.12 850 25.1 6.3 43.3 40 -6.3 20.7
12:55 1020 30.12 850 25.1 6.3 43.3 40 -6.3 20.7
13:00 1020 30.12 850 25.1 7.1 44.8 37 -6.5 20.3
13:05 1020 30.12 850 25.1 7.5 45.5 38 -5.8 21.6
13:10 1020 30.12 850 25.1 7.5 45.5 39 -5.7 21.8
13:15 1020 30.12 849 25.07 7.6 45.8 39 -5.6 22
13:20 1020 30.12 849 25.07 7.6 45.6 40 -5 22.9
13:25 1020 30.12 849 25.07 7.1 44.7 39 -5.9 21.4
13:30 1020 30.12 849 25.07 7.3 45.1 38 -6 21.2
13:35 1020 30.12 849 25.07 6.6 43.9 42 -5.4 22.3
13:40 1020 30.12 849 25.07 6.4 43.5 42 -5.7 21.7
13:45 1020 30.12 849 25.07 6.5 43.7 40 -6.1 21.1
13:50 1020 30.12 849 25.07 6.7 44.1 40 -6 21.2
13:55 1020 30.12 849 25.07 7.1 44.8 39 -5.8 21.5
14:00 1020 30.12 849 25.07 7.3 45.1 38 -6 21.2
14:05 1020 30.12 849 25.07 7.8 46 37 -5.9 21.4
14:10 1020 30.12 849 25.07 8.1 46.5 36 -6 21.2
14:15 1020 30.12 849 25.07 8.1 46.7 36 -6.1 21.1
14:20 1020 30.12 849 25.07 8.5 47.2 35 -6.1 21
14:25 1020 30.12 849 25.07 8.5 47.4 35 -6.1 21.1
14:30 1020 30.12 849 25.07 8.5 47.3 35 -6 21.2
14:35 1020 30.12 849 25.07 8.7 47.7 35 -5.8 21.5
14:40 1020 30.12 849 25.07 8.7 47.6 36 -5.6 22
14:45 1020 30.12 849 25.07 8.1 46.5 37 -5.9 21.4
14:50 1020 30.12 849 25.07 8.3 46.9 35 -6.1 21
14:55 1020 30.12 849 25.07 8.6 47.5 35 -5.9 21.4
15:00 1020 30.12 849 25.07 8.3 47 37 -5.4 22.3
15:05 1020 30.12 849 25.07 8.1 46.7 37 -5.8 21.5
15:10 1020 30.12 849 25.07 7.8 46.1 36 -6.4 20.5
15:15 1019 30.09 849 25.07 7.5 45.4 38 -6 21.2
15:20 1019 30.09 849 25.07 7.6 45.6 39 -5.5 22.2
15:25 1019 30.09 849 25.07 7.6 45.8 39 -5.5 22
15:30 1019 30.09 849 25.07 7.7 45.9 38 -5.6 21.8
15:35 1019 30.09 849 25.07 8 46.5 37 -5.8 21.6
15:40 1019 30.09 849 25.07 7.5 45.6 40 -5.1 22.9
15:45 1019 30.09 849 25.07 6.8 44.2 41 -5.4 22.2
15:50 1019 30.09 849 25.07 6.7 44 42 -5.2 22.7
15:55 1019 30.09 849 25.07 6.3 43.3 42 -5.7 21.7
16:00 1019 30.09 849 25.07 6.2 43.1 43 -5.4 22.2
16:05 1019 30.09 849 25.07 6.1 43 44 -5.2 22.6
16:10 1019 30.09 849 25.07 6.2 43.2 44 -5.2 22.6
16:15 1019 30.09 849 25.07 6.3 43.3 45 -4.7 23.5
16:20 1019 30.09 849 25.07 6.2 43.2 46 -4.5 23.9
16:25 1019 30.09 849 25.07 6.1 42.9 45 -4.8 23.3
16:30 1019 30.09 849 25.07 5.8 42.5 45 -5.1 22.9
16:35 1019 30.09 849 25.07 5.7 42.2 45 -5.2 22.6
16:40 1019 30.09 849 25.07 5.5 41.9 47 -4.9 23.2
16:45 1019 30.09 849 25.07 5.2 41.4 46 -5.4 22.4
16:50 1019 30.09 849 25.07 5.1 41.1 45 -6 21.2
16:55 1019 30.09 849 25.07 5.2 41.3 45 -5.7 21.7
17:00 1019 30.09 849 25.07 5.2 41.3 48 -5 23
17:05 1019 30.09 849 25.07 4.8 40.7 49 -4.9 23.2
17:10 1019 30.09 849 25.07 4.5 40.1 49 -5.3 22.5
17:15 1019 30.09 849 25.07 4.5 40.1 50 -5 23
17:20 1019 30.09 849 25.07 4.3 39.8 51 -4.9 23.3
17:25 1019 30.09 849 25.07 4.2 39.5 50 -5.2 22.6
17:30 1019 30.09 849 25.07 4 39.2 52 -5 23.1
17:35 1019 30.09 849 25.07 3.9 39 51 -5.5 22.2
17:40 1019 30.09 849 25.07 3.8 38.8 50 -5.6 21.9
17:45 1019 30.09 848 25.04 3.9 39 49 -5.9 21.3
17:50 1019 30.09 848 25.04 3.9 39 50 -5.6 21.9
17:55 1019 30.09 848 25.04 3.6 38.5 52 -5.4 22.2
18:00 1019 30.09 848 25.04 3.3 37.9 54 -5.2 22.6
18:05 1019 30.09 848 25.04 3.1 37.6 54 -5.2 22.6
18:10 1019 30.09 848 25.04 3.2 37.7 54 -5.3 22.4
18:15 1019 30.09 848 25.04 3.4 38.1 53 -5.3 22.5
18:20 1019 30.09 848 25.04 3.5 38.4 51 -5.6 21.9
18:25 1019 30.09 849 25.07 3.7 38.7 49 -5.9 21.4
18:30 1019 30.09 849 25.07 3.8 38.9 51 -5.4 22.2
18:35 1019 30.09 849 25.07 3.4 38.1 52 -5.5 22.1
18:40 1019 30.09 849 25.07 3.1 37.6 54 -5.4 22.3
18:45 1019 30.09 849 25.07 3 37.4 53 -5.8 21.6
18:50 1019 30.09 849 25.07 3 37.3 53 -5.6 21.9
18:55 1019 30.09 849 25.07 2.9 37.3 53 -5.8 21.6
19:00 1019 30.09 849 25.07 3 37.3 53 -5.6 21.9
19:05 1019 30.09 849 25.07 2.9 37.2 52 -5.9 21.4
19:10 1019 30.09 849 25.07 2.9 37.2 53 -5.8 21.5
19:15 1019 30.09 849 25.07 2.7 36.8 53 -5.9 21.4
19:20 1020 30.12 849 25.07 2.5 36.5 54 -6 21.3
19:25 1020 30.12 849 25.07 2.5 36.5 53 -6.1 21
19:30 1020 30.12 849 25.07 2.5 36.5 53 -6.2 20.8
19:35 1020 30.12 849 25.07 2.5 36.5 53 -6.2 20.9
19:40 1020 30.12 849 25.07 2.5 36.4 53 -6.3 20.7
19:45 1020 30.12 849 25.07 2.4 36.4 52 -6.5 20.3
19:50 1020 30.12 849 25.07 2.7 36.8 50 -6.7 20
19:55 1020 30.12 849 25.07 2.9 37.2 49 -6.7 20
20:00 1020 30.12 849 25.07 2.9 37.1 51 -6.2 20.8
20:05 1020 30.12 849 25.07 2.6 36.7 54 -5.8 21.6
20:10 1020 30.12 849 25.07 2.5 36.5 53 -6 21.1
20:15 1020 30.12 849 25.07 2.3 36.1 57 -5.3 22.4
20:20 1020 30.12 849 25.07 1.5 34.8 58 -5.9 21.3
20:25 1020 30.12 849 25.07 1.4 34.5 61 -5.3 22.5
20:30 1020 30.12 849 25.07 0.9 33.5 60 -6.2 20.9
20:35 1020 30.12 849 25.07 1.3 34.4 58 -6.1 21
20:40 1020 30.12 849 25.07 1.3 34.4 58 -6 21.2
20:45 1020 30.12 849 25.07 1.3 34.3 57 -6.3 20.6
20:50 1020 30.12 849 25.07 1.2 34.2 58 -6.1 21
20:55 1020 30.12 849 25.07 1.2 34.1 56 -6.7 19.9
21:00 1020 30.12 849 25.07 1.7 35 55 -6.5 20.4
21:05 1020 30.12 849 25.07 1.4 34.6 56 -6.4 20.5
21:10 1020 30.12 849 25.07 1.5 34.7 55 -6.6 20.2
21:15 1020 30.12 849 25.07 1.7 35.1 55 -6.4 20.5
21:20 1020 30.12 849 25.07 1.6 34.9 54 -6.7 20
21:25 1020 30.12 849 25.07 1.8 35.2 53 -6.7 19.9
21:30 1020 30.12 849 25.07 1.9 35.4 55 -6.3 20.7
21:35 1020 30.12 849 25.07 1.9 35.4 55 -6.1 21
21:40 1020 30.12 849 25.07 1.4 34.5 58 -6 21.3
21:45 1020 30.12 849 25.07 0.7 33.3 62 -5.7 21.7
21:50 1020 30.12 849 25.07 0.4 32.8 62 -6 21.3
21:55 1020 30.12 849 25.07 0.3 32.5 64 -5.8 21.5
22:00 1020 30.12 849 25.07 0.3 32.5 64 -5.8 21.6
22:05 1020 30.12 849 25.07 0.8 33.4 63 -5.6 22
22:10 1020 30.12 849 25.07 0.8 33.5 63 -5.4 22.3
22:15 1020 30.12 849 25.07 1 33.7 63 -5.3 22.5
22:20 1020 30.12 849 25.07 1 33.9 63 -5.2 22.6
22:25 1020 30.12 849 25.07 1.1 33.9 63 -5.2 22.7
22:30 1020 30.12 849 25.07 0.9 33.6 64 -5.2 22.7
22:35 1020 30.12 849 25.07 0.8 33.4 64 -5.2 22.6
22:40 1020 30.12 849 25.07 0.8 33.4 64 -5.2 22.6
22:45 1020 30.12 849 25.07 0.7 33.2 65 -5.1 22.7
22:50 1020 30.12 849 25.07 0.5 32.9 65 -5.3 22.5
22:55 1020 30.12 849 25.07 0.4 32.7 66 -5.2 22.6
23:00 1020 30.12 849 25.07 0.4 32.6 66 -5.3 22.4
23:05 1020 30.12 849 25.07 0.4 32.6 66 -5.3 22.5
23:10 1020 30.12 849 25.07 0.3 32.5 66 -5.3 22.5
23:15 1020 30.12 849 25.07 0.1 32.3 66 -5.4 22.2
23:20 1020 30.12 849 25.07 0.2 32.3 66 -5.4 22.2
23:25 1020 30.12 849 25.07 0.1 32.2 66 -5.4 22.2
23:30 1020 30.12 849 25.07 0 32 67 -5.4 22.3
23:35 1020 30.12 849 25.07 -0.1 31.8 67 -5.5 22.1
23:40 1020 30.12 849 25.07 -0.1 31.8 67 -5.5 22.1
23:45 1020 30.12 849 25.07 -0.2 31.7 67 -5.5 22
23:50 1020 30.12 849 25.07 -0.2 31.7 67 -5.6 22
23:55 1020 30.12 849 25.07 -0.3 31.5 68 -5.6 22
24:00 1020 30.12 849 25.07 -0.4 31.3 68 -5.6 21.9